Time;durP1;ratioP1;P1;durP2;ratioP2;P2;SDS_P1;SDS_P2;PMS_P1;PMS_P2;Temp;Humidity;BMP_temperature;BMP_pressure;BME280_temperature;BME280_humidity;BME280_pressure;Samples;Min_cycle;Max_cycle;Signal;HPM_P1;HPM_P2
2021/12/26 00:00:48;;;;;;;;;;;2.90;99.90;;;4.24;100.00;99662.56;4974364;28;19965;-81
2021/12/26 00:03:22;;;;;;;;;;;4.40;99.90;;;4.23;100.00;99667.81;4990430;28;19937;-80
2021/12/26 00:05:50;;;;;;;;;;;6.50;99.90;;;4.18;100.00;99660.03;4958894;28;20454;-78
2021/12/26 00:08:18;;;;;;;;;;;4.40;99.90;;;4.22;100.00;99663.47;4974454;28;19940;-81
2021/12/26 00:10:48;;;;;;;;;;;6.80;99.90;;;4.22;100.00;99658.28;4958413;28;19930;-81
2021/12/26 00:13:16;;;;;;;;;;;4.40;99.90;;;4.16;100.00;99659.19;4941899;28;19936;-81
2021/12/26 00:15:43;;;;;;;;;;;4.30;99.90;;;4.18;100.00;99656.56;4973948;28;19930;-79
2021/12/26 00:18:11;;;;;;;;;;;3.00;99.90;;;4.23;100.00;99665.22;4974740;28;20013;-79
2021/12/26 00:20:39;;;;;;;;;;;4.60;99.90;;;4.19;100.00;99658.28;4967278;28;20025;-80
2021/12/26 00:23:06;;;;;;;;;;;4.40;99.90;;;4.14;100.00;99657.47;4955863;29;19937;-81
2021/12/26 00:25:34;;;;;;;;;;;3.80;99.90;;;4.17;100.00;99654.81;4963857;29;20415;-80
2021/12/26 00:28:02;;;;;;;;;;;6.90;99.90;;;4.15;100.00;99654.88;4979915;28;20628;-81
2021/12/26 00:30:29;;;;;;;;;;;5.50;99.90;;;4.18;100.00;99654.81;4960695;28;19926;-80
2021/12/26 00:32:56;;;;;;;;;;;7.50;99.90;;;4.17;100.00;99654.81;4955866;29;19936;-80
2021/12/26 00:35:23;;;;;;;;;;;5.60;99.90;;;4.20;100.00;99660.00;4973199;28;19930;-79
2021/12/26 00:37:50;;;;;;;;;;;4.40;99.90;;;4.22;100.00;99656.53;4954421;28;19966;-80
2021/12/26 00:40:20;;;;;;;;;;;4.40;99.90;;;4.21;100.00;99649.59;4951977;29;19934;-79
2021/12/26 00:42:48;;;;;;;;;;;4.50;99.90;;;4.20;100.00;99652.19;4939367;28;20037;-79
2021/12/26 00:45:16;;;;;;;;;;;6.90;99.90;;;4.22;100.00;99646.09;4969233;28;19930;-80
2021/12/26 00:47:43;;;;;;;;;;;4.60;99.90;;;4.20;100.00;99653.06;4958942;29;19917;-80
2021/12/26 00:50:12;;;;;;;;;;;4.40;99.90;;;4.20;100.00;99639.16;4962271;28;19927;-79
2021/12/26 00:52:39;;;;;;;;;;;6.10;99.90;;;4.23;100.00;99649.59;4942517;29;19945;-79
2021/12/26 00:55:08;;;;;;;;;;;6.20;99.90;;;4.18;100.00;99641.81;4943379;29;20423;-79
2021/12/26 00:57:35;;;;;;;;;;;4.30;99.90;;;4.23;100.00;99644.38;4960417;29;20037;-79
2021/12/26 01:00:06;;;;;;;;;;;3.90;99.90;;;4.19;100.00;99643.53;4940358;29;19930;-80
2021/12/26 01:02:33;;;;;;;;;;;4.50;99.90;;;4.14;100.00;99645.31;4971745;28;19926;-79
2021/12/26 01:05:01;;;;;;;;;;;4.50;99.90;;;4.17;100.00;99640.09;4940377;29;19926;-79
2021/12/26 01:10:08;;;;;;;;;;;4.40;99.90;;;4.17;100.00;99640.09;4972990;28;19935;-80
2021/12/26 01:12:36;;;;;;;;;;;4.50;99.90;;;4.09;100.00;99645.38;4954745;29;19937;-80
2021/12/26 01:15:08;;;;;;;;;;;7.00;99.90;;;4.16;100.00;99640.97;4956162;28;19974;-79
2021/12/26 01:17:46;;;;;;;;;;;4.30;99.90;;;4.16;100.00;99648.78;4956897;29;19993;-80
2021/12/26 01:20:29;;;;;;;;;;;4.40;99.90;;;4.19;100.00;99645.25;4941053;29;20564;-80
2021/12/26 01:22:58;;;;;;;;;;;5.40;99.90;;;4.15;100.00;99651.38;4938981;29;19934;-81
2021/12/26 01:25:25;;;;;;;;;;;4.20;99.90;;;4.14;100.00;99647.06;4939311;29;19974;-80
2021/12/26 01:27:54;;;;;;;;;;;5.10;99.90;;;4.20;100.00;99652.19;4923880;29;19981;-81
2021/12/26 01:30:22;;;;;;;;;;;7.10;99.90;;;4.09;100.00;99654.91;4955117;29;19961;-81
2021/12/26 01:32:53;;;;;;;;;;;4.40;99.90;;;4.14;100.00;99652.25;4954510;28;20053;-80
2021/12/26 01:35:29;;;;;;;;;;;6.70;99.90;;;4.16;100.00;99653.09;4970094;28;20405;-81
2021/12/26 01:38:19;;;;;;;;;;;4.40;99.90;;;4.15;100.00;99654.00;4958673;28;20392;-81
2021/12/26 01:41:09;;;;;;;;;;;5.30;99.90;;;4.17;100.00;99652.22;4971992;28;19935;-79
2021/12/26 01:44:09;;;;;;;;;;;4.30;99.90;;;4.16;100.00;99658.31;4958224;28;19926;-80
2021/12/26 01:46:45;;;;;;;;;;;4.20;99.90;;;4.16;100.00;99653.97;4954799;29;20510;-81
2021/12/26 01:49:12;;;;;;;;;;;4.60;99.90;;;4.21;100.00;99659.13;4953972;28;19926;-81
2021/12/26 01:51:40;;;;;;;;;;;4.40;99.90;;;4.17;100.00;99660.91;4955131;29;19954;-82
2021/12/26 01:54:10;;;;;;;;;;;4.20;99.90;;;4.21;100.00;99660.00;4954943;29;20017;-80
2021/12/26 01:56:41;;;;;;;;;;;6.50;99.90;;;4.10;100.00;99667.91;4954780;29;19941;-81
2021/12/26 01:59:10;;;;;;;;;;;4.40;99.90;;;4.10;100.00;99665.31;4955222;29;20011;-81
2021/12/26 02:01:42;;;;;;;;;;;6.00;99.90;;;4.17;100.00;99665.25;4971474;28;19927;-80
2021/12/26 02:04:09;;;;;;;;;;;4.30;99.90;;;4.20;100.00;99665.22;4956715;29;19940;-79
2021/12/26 02:06:37;;;;;;;;;;;5.50;99.90;;;4.17;100.00;99660.91;4959460;29;19926;-80
2021/12/26 02:09:04;;;;;;;;;;;6.60;99.90;;;4.13;100.00;99664.41;4959043;29;20295;-80
2021/12/26 02:11:32;;;;;;;;;;;5.70;99.90;;;4.10;100.00;99661.84;4948627;28;19933;-79
2021/12/26 02:14:00;;;;;;;;;;;6.10;99.90;;;4.10;100.00;99654.91;4977473;28;19941;-81
2021/12/26 02:16:37;;;;;;;;;;;4.30;99.90;;;4.13;100.00;99666.16;4965549;28;19939;-81
2021/12/26 02:19:04;;;;;;;;;;;4.30;99.90;;;4.13;100.00;99656.59;4977471;28;20013;-81
2021/12/26 02:21:55;;;;;;;;;;;6.10;99.90;;;4.13;100.00;99659.19;4978978;28;19930;-80
2021/12/26 02:24:28;;;;;;;;;;;4.00;99.90;;;4.16;100.00;99661.78;4992681;28;19936;-80
2021/12/26 02:29:41;;;;;;;;;;;4.20;99.90;;;4.18;100.00;99646.13;4977666;28;19936;-81
2021/12/26 02:32:09;;;;;;;;;;;5.20;99.90;;;4.13;100.00;99650.53;4978453;28;20269;-79
2021/12/26 02:34:39;;;;;;;;;;;4.30;99.90;;;4.23;100.00;99658.25;4993706;28;19926;-80
2021/12/26 02:37:06;;;;;;;;;;;5.70;99.90;;;4.20;100.00;99646.97;4977501;28;19926;-81
2021/12/26 02:39:35;;;;;;;;;;;4.70;99.90;;;4.20;100.00;99650.47;4963134;28;19929;-82
2021/12/26 02:42:03;;;;;;;;;;;7.00;99.90;;;4.20;100.00;99647.88;4979697;28;19961;-80
2021/12/26 02:44:30;;;;;;;;;;;2.80;99.90;;;4.17;100.00;99657.44;4962369;28;19936;-80
2021/12/26 02:46:57;;;;;;;;;;;6.50;99.90;;;4.22;100.00;99653.06;4980663;28;19934;-80
2021/12/26 02:49:25;;;;;;;;;;;4.90;99.90;;;4.17;100.00;99637.47;4995244;28;20494;-79
2021/12/26 02:51:53;;;;;;;;;;;4.20;99.90;;;4.20;100.00;99655.66;4976764;28;20684;-81
2021/12/26 02:54:25;;;;;;;;;;;2.70;99.90;;;4.22;100.00;99640.06;4976318;28;20040;-80
2021/12/26 02:56:53;;;;;;;;;;;4.30;99.90;;;4.25;100.00;99651.28;4961391;29;19930;-80
2021/12/26 02:59:21;;;;;;;;;;;4.40;99.90;;;4.15;100.00;99638.38;4977588;28;19930;-79
2021/12/26 03:01:48;;;;;;;;;;;5.90;99.90;;;4.19;100.00;99646.13;4979050;28;19934;-80
2021/12/26 03:04:15;;;;;;;;;;;4.70;99.90;;;4.19;100.00;99640.94;4977158;28;20411;-80
2021/12/26 03:09:12;;;;;;;;;;;4.80;99.90;;;4.23;100.00;99653.03;4977558;28;19978;-81
2021/12/26 03:11:43;;;;;;;;;;;6.70;99.90;;;4.18;100.00;99648.75;4977226;28;20003;-81
2021/12/26 03:14:10;;;;;;;;;;;4.20;99.90;;;4.20;100.00;99653.06;4976546;28;19962;-81
2021/12/26 03:16:49;;;;;;;;;;;4.40;99.90;;;4.18;100.00;99649.63;4965281;28;19934;-81
2021/12/26 03:19:16;;;;;;;;;;;2.50;99.90;;;4.18;100.00;99652.22;4965974;28;19998;-80
2021/12/26 03:21:51;;;;;;;;;;;4.20;99.90;;;4.15;100.00;99649.66;4981376;28;19930;-80
2021/12/26 03:24:18;;;;;;;;;;;6.50;99.90;;;4.20;100.00;99653.06;4997505;28;20821;-80
2021/12/26 03:26:45;;;;;;;;;;;4.30;99.90;;;4.19;100.00;99645.25;4951472;28;20001;-80
2021/12/26 03:29:12;;;;;;;;;;;5.80;99.90;;;4.20;100.00;99658.28;4982169;28;19926;-80
2021/12/26 03:31:41;;;;;;;;;;;4.30;99.90;;;4.16;100.00;99656.59;4981076;28;20024;-80
2021/12/26 03:34:08;;;;;;;;;;;5.30;99.90;;;4.17;100.00;99655.72;4979620;28;19949;-80
2021/12/26 03:36:36;;;;;;;;;;;4.40;99.90;;;4.17;100.00;99647.03;4981093;28;20032;-79
2021/12/26 03:39:05;;;;;;;;;;;5.60;99.90;;;4.19;100.00;99651.34;4981583;28;19965;-80
2021/12/26 03:41:32;;;;;;;;;;;4.20;99.90;;;4.17;100.00;99647.91;4980489;28;19926;-81
2021/12/26 03:44:01;;;;;;;;;;;4.50;99.90;;;4.15;100.00;99644.44;4978037;28;20229;-80
2021/12/26 03:46:30;;;;;;;;;;;6.80;99.90;;;4.09;100.00;99636.69;4996560;28;19930;-80
2021/12/26 03:49:01;;;;;;;;;;;4.50;99.90;;;4.14;100.00;99647.94;4980801;28;19927;-81
2021/12/26 03:51:28;;;;;;;;;;;7.30;99.90;;;4.19;100.00;99650.47;4979389;28;20382;-80
2021/12/26 03:53:55;;;;;;;;;;;4.60;99.90;;;4.20;100.00;99641.78;4997123;28;19936;-80
2021/12/26 03:56:22;;;;;;;;;;;7.30;99.90;;;4.14;100.00;99642.72;4981503;28;19949;-80
2021/12/26 03:59:06;;;;;;;;;;;5.10;99.90;;;4.13;100.00;99640.97;4965284;28;19930;-81
2021/12/26 04:01:33;;;;;;;;;;;4.40;99.90;;;4.09;100.00;99634.06;4996754;28;19954;-81
2021/12/26 04:04:01;;;;;;;;;;;5.40;99.90;;;4.14;100.00;99627.09;4947119;28;19930;-80
2021/12/26 04:06:29;;;;;;;;;;;4.10;99.90;;;4.04;100.00;99617.63;4979421;28;19934;-80
2021/12/26 04:08:57;;;;;;;;;;;5.10;99.90;;;4.08;100.00;99629.75;4980707;28;19930;-81
2021/12/26 04:11:25;;;;;;;;;;;6.30;99.90;;;4.01;100.00;99620.28;4980002;28;20054;-79
2021/12/26 04:13:52;;;;;;;;;;;5.10;99.90;;;4.00;100.00;99618.56;4964063;28;19926;-80
2021/12/26 04:16:19;;;;;;;;;;;6.70;99.90;;;4.04;100.00;99631.50;4963614;28;19930;-81
2021/12/26 04:18:46;;;;;;;;;;;2.90;99.90;;;4.08;100.00;99633.22;4980692;28;19930;-80
2021/12/26 04:21:14;;;;;;;;;;;6.30;99.90;;;4.06;100.00;99632.38;4964937;28;19930;-81
2021/12/26 04:23:52;;;;;;;;;;;6.30;99.90;;;4.05;100.00;99638.44;4980935;28;19969;-80
2021/12/26 04:26:19;;;;;;;;;;;7.40;99.90;;;4.08;100.00;99632.34;4982467;28;20629;-81
2021/12/26 04:28:46;;;;;;;;;;;5.40;99.90;;;4.04;100.00;99628.06;4996747;28;19965;-80
2021/12/26 04:31:15;;;;;;;;;;;6.60;99.90;;;4.07;100.00;99638.44;4979971;28;19930;-81
2021/12/26 04:33:43;;;;;;;;;;;4.30;99.90;;;4.06;100.00;99637.59;4996446;28;19930;-80
2021/12/26 04:36:10;;;;;;;;;;;6.50;99.90;;;4.03;100.00;99640.19;4995873;28;19941;-80
2021/12/26 04:38:37;;;;;;;;;;;5.40;99.90;;;4.04;100.00;99639.31;4997869;28;19961;-80
2021/12/26 04:41:05;;;;;;;;;;;6.30;99.90;;;4.09;100.00;99652.28;4996427;28;20383;-80
2021/12/26 04:43:59;;;;;;;;;;;1.70;99.90;;;4.10;100.00;99639.28;4971439;28;19934;-80
2021/12/26 04:46:36;;;;;;;;;;;4.60;99.90;;;4.06;100.00;99650.59;4963132;28;19930;-81
2021/12/26 04:49:05;;;;;;;;;;;6.00;99.90;;;4.13;100.00;99646.16;4980420;28;19961;-80
2021/12/26 04:51:32;;;;;;;;;;;4.20;99.90;;;4.11;100.00;99645.34;4979224;28;19930;-80
2021/12/26 04:54:03;;;;;;;;;;;6.00;99.90;;;4.15;100.00;99651.38;4995515;28;19930;-81
2021/12/26 04:56:32;;;;;;;;;;;4.30;99.90;;;4.10;100.00;99646.22;4979469;28;20190;-79
2021/12/26 04:58:59;;;;;;;;;;;5.50;99.90;;;4.00;100.00;99635.03;5000311;28;19965;-80
2021/12/26 05:01:26;;;;;;;;;;;6.00;99.90;;;4.10;100.00;99641.00;4982224;28;20315;-80
2021/12/26 05:03:53;;;;;;;;;;;4.20;99.90;;;4.10;100.00;99643.59;4979246;28;19937;-81
2021/12/26 05:06:25;;;;;;;;;;;6.30;99.90;;;4.04;100.00;99646.28;4979091;28;19954;-81
2021/12/26 05:08:52;;;;;;;;;;;5.30;99.90;;;4.13;100.00;99642.72;4998500;28;19930;-79
2021/12/26 05:11:19;;;;;;;;;;;4.30;99.90;;;4.08;100.00;99646.25;4993885;28;20615;-79
2021/12/26 05:13:46;;;;;;;;;;;4.60;99.90;;;4.02;100.00;99641.06;4956763;29;20025;-79
2021/12/26 05:16:13;;;;;;;;;;;6.60;99.90;;;3.99;100.00;99637.66;4956041;29;19930;-78
2021/12/26 05:18:41;;;;;;;;;;;6.70;99.90;;;3.91;100.00;99632.50;4971155;28;19993;-79
2021/12/26 05:21:08;;;;;;;;;;;4.90;99.90;;;4.03;100.00;99644.56;4959246;28;19938;-80
2021/12/26 05:23:36;;;;;;;;;;;7.10;99.90;;;4.00;100.00;99645.44;4959883;29;19931;-79
2021/12/26 05:26:04;;;;;;;;;;;6.20;99.90;;;3.97;100.00;99641.09;4971683;28;19932;-79
2021/12/26 05:28:34;;;;;;;;;;;4.10;99.90;;;4.06;100.00;99649.72;4977962;28;19934;-79
2021/12/26 05:31:02;;;;;;;;;;;4.30;99.90;;;4.07;100.00;99641.91;4993445;28;19930;-79
2021/12/26 05:33:37;;;;;;;;;;;4.40;99.90;;;4.06;100.00;99647.13;4979113;28;20011;-80
2021/12/26 05:36:04;;;;;;;;;;;4.30;99.90;;;4.03;100.00;99642.78;4978921;28;19930;-79
2021/12/26 05:38:35;;;;;;;;;;;4.20;99.90;;;4.06;100.00;99641.91;4962692;28;19933;-79
2021/12/26 05:41:02;;;;;;;;;;;4.10;99.90;;;3.99;100.00;99635.91;4957560;28;19930;-79
2021/12/26 05:43:32;;;;;;;;;;;6.10;99.90;;;4.00;100.00;99628.97;4955018;28;19933;-80
2021/12/26 05:45:59;;;;;;;;;;;4.30;99.90;;;4.01;100.00;99634.13;4972035;28;19950;-79
2021/12/26 05:48:28;;;;;;;;;;;4.30;99.90;;;4.04;100.00;99634.09;4957805;29;19931;-78
2021/12/26 05:50:55;;;;;;;;;;;4.30;99.90;;;4.05;100.00;99634.97;4960472;29;20316;-79
2021/12/26 05:53:54;;;;;;;;;;;4.00;99.90;;;4.02;100.00;99628.06;4958975;28;20336;-79
2021/12/26 05:56:22;;;;;;;;;;;1.40;99.90;;;4.04;100.00;99628.06;4957793;28;19934;-79
2021/12/26 05:58:55;;;;;;;;;;;4.20;99.90;;;4.08;100.00;99640.16;4973775;28;19931;-79
2021/12/26 06:01:23;;;;;;;;;;;7.50;99.90;;;4.00;100.00;99626.38;4974221;28;20017;-79
2021/12/26 06:03:51;;;;;;;;;;;5.30;99.90;;;4.09;100.00;99628.88;4958048;28;19930;-79
2021/12/26 06:06:17;;;;;;;;;;;6.20;99.90;;;4.05;100.00;99641.03;4942280;29;19935;-79
2021/12/26 06:08:46;;;;;;;;;;;4.90;99.90;;;4.03;100.00;99631.53;4942861;29;19927;-79
2021/12/26 06:11:13;;;;;;;;;;;4.20;99.90;;;4.03;100.00;99634.13;4956261;28;19930;-80
2021/12/26 06:13:40;;;;;;;;;;;6.20;99.90;;;4.05;100.00;99634.97;4956786;29;19930;-80
2021/12/26 06:16:07;;;;;;;;;;;4.10;99.90;;;4.02;100.00;99641.06;4957891;28;19935;-79
2021/12/26 06:18:34;;;;;;;;;;;6.50;99.90;;;4.05;100.00;99633.22;4941179;29;20407;-79
2021/12/26 06:21:22;;;;;;;;;;;4.00;99.90;;;4.03;100.00;99637.59;4974952;28;19996;-79
2021/12/26 06:24:08;;;;;;;;;;;4.30;99.90;;;4.08;100.00;99638.44;4960816;29;19949;-79
2021/12/26 06:27:01;;;;;;;;;;;6.30;99.90;;;4.06;100.00;99626.28;4957648;28;19930;-79
2021/12/26 06:29:57;;;;;;;;;;;5.80;99.90;;;4.05;100.00;99629.78;4956170;28;19927;-79
2021/12/26 06:32:50;;;;;;;;;;;4.10;99.90;;;4.06;100.00;99631.50;4960521;28;19934;-79
2021/12/26 06:35:35;;;;;;;;;;;5.30;99.90;;;4.05;100.00;99634.97;4960038;29;20028;-79
2021/12/26 06:38:42;;;;;;;;;;;6.80;99.90;;;4.06;100.00;99634.09;4957992;29;19981;-79
2021/12/26 06:41:29;;;;;;;;;;;4.20;99.90;;;4.07;100.00;99636.72;4937531;29;19937;-78
2021/12/26 06:44:15;;;;;;;;;;;4.40;99.90;;;4.10;100.00;99636.69;4952468;29;19941;-79
2021/12/26 06:46:56;;;;;;;;;;;4.30;99.90;;;4.09;100.00;99641.88;4955866;29;19927;-80
2021/12/26 06:49:30;;;;;;;;;;;4.10;99.90;;;4.04;100.00;99646.28;4976270;28;19957;-78
2021/12/26 06:52:01;;;;;;;;;;;5.70;99.90;;;4.11;100.00;99647.94;4944372;29;20525;-79
2021/12/26 06:54:28;;;;;;;;;;;5.30;99.90;;;4.07;100.00;99641.91;4958730;29;19931;-79
2021/12/26 06:56:55;;;;;;;;;;;6.30;99.90;;;4.15;100.00;99647.06;4976957;28;19934;-78
2021/12/26 06:59:25;;;;;;;;;;;4.20;99.90;;;4.13;100.00;99653.13;4960837;29;20415;-78
2021/12/26 07:01:52;;;;;;;;;;;4.30;99.90;;;4.10;100.00;99646.22;4962505;29;19957;-80
2021/12/26 07:04:22;;;;;;;;;;;4.30;99.90;;;4.07;100.00;99639.31;4945496;29;19931;-80
2021/12/26 07:06:49;;;;;;;;;;;4.20;99.90;;;4.07;100.00;99641.03;4961972;29;19994;-80
2021/12/26 07:09:24;;;;;;;;;;;4.30;99.90;;;4.13;100.00;99647.94;4944707;29;19930;-80
2021/12/26 07:11:54;;;;;;;;;;;4.30;99.90;;;4.12;100.00;99647.06;4959368;28;19969;-80
2021/12/26 07:14:41;;;;;;;;;;;4.20;99.90;;;4.11;100.00;99646.22;4971368;28;19921;-79
2021/12/26 07:17:10;;;;;;;;;;;6.30;99.90;;;4.13;100.00;99645.31;4975472;28;19930;-81
2021/12/26 07:19:41;;;;;;;;;;;6.80;99.90;;;4.16;100.00;99647.91;4972329;28;20385;-81
2021/12/26 07:22:16;;;;;;;;;;;4.40;99.90;;;4.16;100.00;99650.50;4983479;28;19926;-81
2021/12/26 07:24:46;;;;;;;;;;;6.60;99.90;;;4.14;100.00;99657.47;4984440;28;19930;-80
2021/12/26 07:27:15;;;;;;;;;;;4.40;99.90;;;4.10;100.00;99652.28;4982899;28;19930;-80
2021/12/26 07:30:08;;;;;;;;;;;6.50;99.90;;;4.14;100.00;99650.53;4980515;28;19934;-81
2021/12/26 07:32:35;;;;;;;;;;;4.30;99.90;;;4.15;100.00;99665.28;4981923;28;20391;-81
2021/12/26 07:35:03;;;;;;;;;;;4.00;99.90;;;4.15;100.00;99662.69;4983466;28;19934;-79
2021/12/26 07:37:30;;;;;;;;;;;4.30;99.90;;;4.17;100.00;99663.53;4983102;28;19980;-80
2021/12/26 07:39:57;;;;;;;;;;;4.10;99.90;;;4.19;100.00;99668.69;4982902;28;19954;-81
2021/12/26 07:42:26;;;;;;;;;;;5.80;99.90;;;4.16;100.00;99676.53;4983159;28;19932;-81
2021/12/26 07:45:12;;;;;;;;;;;5.40;99.90;;;4.14;100.00;99666.16;4997267;28;19937;-81
2021/12/26 07:47:46;;;;;;;;;;;4.30;99.90;;;4.15;100.00;99670.50;4998415;28;19963;-81
2021/12/26 07:50:13;;;;;;;;;;;6.20;99.90;;;4.11;100.00;99669.63;5003387;28;20359;-81
2021/12/26 07:53:05;;;;;;;;;;;4.20;99.90;;;4.18;100.00;99669.56;4956304;29;19941;-81
2021/12/26 07:55:51;;;;;;;;;;;5.10;99.90;;;4.18;100.00;99672.19;4950955;29;20255;-79
2021/12/26 07:58:36;;;;;;;;;;;4.20;99.90;;;4.04;100.00;99677.50;4958155;29;19949;-79
2021/12/26 08:01:22;;;;;;;;;;;5.00;99.90;;;4.04;100.00;99674.91;4958186;28;20006;-80
2021/12/26 08:04:05;;;;;;;;;;;4.30;99.90;;;4.04;100.00;99687.94;4955037;28;20016;-78
2021/12/26 08:06:52;;;;;;;;;;;4.50;99.90;;;4.07;100.00;99673.16;4959637;28;20029;-79
2021/12/26 08:09:21;;;;;;;;;;;6.70;99.90;;;4.10;100.00;99680.06;4957434;28;19930;-80
2021/12/26 08:11:49;;;;;;;;;;;5.60;99.90;;;4.22;100.00;99677.34;4955610;28;19930;-80
2021/12/26 08:14:17;;;;;;;;;;;4.50;99.90;;;4.36;100.00;99672.00;4980045;28;19926;-78
2021/12/26 08:16:44;;;;;;;;;;;6.00;99.90;;;4.36;100.00;99679.81;4962468;28;19926;-79
2021/12/26 08:19:11;;;;;;;;;;;6.00;99.90;;;4.42;100.00;99678.91;4958134;28;19926;-79
2021/12/26 08:21:38;;;;;;;;;;;6.50;99.90;;;4.43;100.00;99680.63;4960971;28;19939;-80
2021/12/26 08:24:06;;;;;;;;;;;4.50;99.90;;;4.34;100.00;99673.75;4977411;28;20002;-79
2021/12/26 08:26:35;;;;;;;;;;;4.60;99.90;;;4.39;100.00;99679.81;4963423;28;19930;-78
2021/12/26 08:29:02;;;;;;;;;;;6.90;99.90;;;4.40;100.00;99678.94;4971815;28;19926;-79
2021/12/26 08:31:30;;;;;;;;;;;4.60;99.90;;;4.49;100.00;99677.97;4952691;28;19993;-78
2021/12/26 08:33:58;;;;;;;;;;;6.70;99.90;;;4.46;100.00;99684.94;4968630;28;19934;-78
2021/12/26 08:36:25;;;;;;;;;;;4.60;99.90;;;4.39;100.00;99681.53;4970167;28;19962;-78
2021/12/26 08:38:52;;;;;;;;;;;4.50;99.90;;;4.42;100.00;99676.28;4965611;28;19993;-80
2021/12/26 08:41:21;;;;;;;;;;;5.70;99.90;;;4.41;100.00;99677.16;4965293;28;19930;-81
2021/12/26 08:43:48;;;;;;;;;;;6.00;99.90;;;4.36;100.00;99682.41;4978303;28;20076;-78
2021/12/26 08:46:15;;;;;;;;;;;5.90;99.90;;;4.44;100.00;99692.75;4964156;28;19930;-77
2021/12/26 08:48:42;;;;;;;;;;;4.50;99.90;;;4.51;100.00;99694.44;4977827;28;20010;-81
2021/12/26 08:51:09;;;;;;;;;;;4.60;99.90;;;4.46;100.00;99687.56;4975567;28;19937;-81
2021/12/26 08:53:36;;;;;;;;;;;4.20;99.90;;;4.41;100.00;99690.19;4976321;28;19934;-79
2021/12/26 08:56:04;;;;;;;;;;;5.00;99.90;;;4.38;100.00;99685.91;4993746;28;20452;-79
2021/12/26 08:58:31;;;;;;;;;;;4.70;99.90;;;4.39;100.00;99691.97;4976858;28;19977;-79
2021/12/26 09:00:58;;;;;;;;;;;5.20;99.90;;;4.40;100.00;99696.28;4980253;28;19930;-80
2021/12/26 09:03:25;;;;;;;;;;;4.50;99.90;;;4.47;100.00;99697.09;4979795;28;19976;-80
2021/12/26 09:05:52;;;;;;;;;;;6.00;99.90;;;4.41;100.00;99690.19;4970505;28;19937;-79
2021/12/26 09:08:20;;;;;;;;;;;4.40;99.90;;;4.47;100.00;99695.38;4957609;28;20405;-78
2021/12/26 09:10:47;;;;;;;;;;;4.50;99.90;;;4.44;100.00;99697.13;4960324;28;19930;-79
2021/12/26 09:13:14;;;;;;;;;;;4.60;99.90;;;4.49;100.00;99695.34;4955426;28;20363;-79
2021/12/26 09:15:41;;;;;;;;;;;4.60;99.90;;;4.45;100.00;99696.25;4987749;28;19930;-78
2021/12/26 09:18:08;;;;;;;;;;;4.50;99.90;;;4.46;100.00;99700.56;4954835;28;20042;-78
2021/12/26 09:20:35;;;;;;;;;;;5.00;99.90;;;4.48;100.00;99702.31;4968318;28;19953;-78
2021/12/26 09:23:02;;;;;;;;;;;4.70;99.90;;;4.51;100.00;99696.19;4969335;28;19930;-77
2021/12/26 09:25:29;;;;;;;;;;;5.10;99.90;;;4.47;100.00;99704.91;4968379;28;19937;-77
2021/12/26 09:27:56;;;;;;;;;;;4.70;99.90;;;4.47;100.00;99702.31;4966213;28;20017;-78
2021/12/26 09:30:23;;;;;;;;;;;4.70;99.90;;;4.54;100.00;99706.59;4969593;28;19930;-77
2021/12/26 09:32:50;;;;;;;;;;;4.90;99.90;;;4.61;100.00;99705.63;4966889;28;20025;-78
2021/12/26 09:35:17;;;;;;;;;;;4.60;99.90;;;4.62;100.00;99704.75;4972776;28;19937;-77
2021/12/26 09:37:44;;;;;;;;;;;5.30;99.90;;;4.75;100.00;99704.63;4977358;28;20679;-77
2021/12/26 09:40:13;;;;;;;;;;;6.30;99.90;;;4.71;100.00;99710.75;4965677;28;19931;-77
2021/12/26 09:42:42;;;;;;;;;;;4.90;99.90;;;4.68;100.00;99707.31;4941358;28;19990;-76
2021/12/26 09:45:09;;;;;;;;;;;4.80;99.90;;;4.73;100.00;99709.00;4969464;28;20012;-76
2021/12/26 09:47:38;;;;;;;;;;;5.00;99.90;;;4.72;100.00;99700.31;4952350;28;19926;-76
2021/12/26 09:50:06;;;;;;;;;;;4.90;99.90;;;4.75;100.00;99705.47;4968872;28;20622;-80
2021/12/26 09:52:34;;;;;;;;;;;4.90;99.90;;;4.77;100.00;99700.25;4972508;28;20033;-83
2021/12/26 09:55:03;;;;;;;;;;;4.90;99.90;;;4.81;100.00;99707.16;4971798;28;19930;-82
2021/12/26 09:57:31;;;;;;;;;;;5.00;99.90;;;4.85;100.00;99705.41;4959064;28;19930;-80
2021/12/26 09:59:58;;;;;;;;;;;5.00;99.90;;;4.87;100.00;99707.13;4970972;28;19934;-79
2021/12/26 10:02:27;;;;;;;;;;;4.30;99.90;;;4.88;100.00;99692.31;4970317;28;19930;-84
2021/12/26 10:04:55;;;;;;;;;;;4.90;99.90;;;4.91;100.00;99684.44;4971214;28;19930;-81
2021/12/26 10:07:26;;;;;;;;;;;5.30;99.90;;;4.99;100.00;99682.63;4955782;28;19934;-80
2021/12/26 10:09:54;;;;;;;;;;;5.10;99.90;;;5.03;100.00;99683.47;4956823;28;20615;-82
2021/12/26 10:12:23;;;;;;;;;;;5.10;99.90;;;5.06;100.00;99680.81;4956539;28;20641;-82
2021/12/26 10:14:54;;;;;;;;;;;5.00;99.90;;;5.06;100.00;99670.38;4978813;28;19950;-83
2021/12/26 10:17:26;;;;;;;;;;;4.70;99.90;;;5.16;100.00;99681.56;4979963;28;19934;-83
2021/12/26 10:20:06;;;;;;;;;;;5.30;99.90;;;5.20;100.00;99676.28;4995666;28;19922;-84
2021/12/26 10:22:35;;;;;;;;;;;4.00;99.90;;;5.23;100.00;99678.00;4958573;28;19930;-83
2021/12/26 10:25:14;;;;;;;;;;;5.30;99.90;;;5.29;100.00;99664.00;4975620;28;19993;-83
2021/12/26 10:27:45;;;;;;;;;;;5.00;99.90;;;5.18;100.00;99661.53;4972304;28;19930;-83
2021/12/26 10:30:17;;;;;;;;;;;5.30;99.90;;;5.17;100.00;99663.28;4953967;28;19938;-82
2021/12/26 10:32:46;;;;;;;;;;;3.30;99.90;;;5.19;100.00;99663.25;4959017;28;19960;-82
2021/12/26 10:35:17;;;;;;;;;;;3.00;99.90;;;5.27;100.00;99669.25;4992530;28;19930;-82
2021/12/26 10:37:49;;;;;;;;;;;5.80;99.90;;;5.32;100.00;99666.59;4961893;28;20562;-82
2021/12/26 10:40:22;;;;;;;;;;;5.40;99.90;;;5.28;100.00;99659.66;4972408;28;19977;-83
2021/12/26 10:42:54;;;;;;;;;;;3.80;99.90;;;5.18;100.00;99645.88;4953662;28;19997;-82
2021/12/26 10:45:25;;;;;;;;;;;5.30;99.90;;;5.23;100.00;99650.16;4957212;28;19930;-82
2021/12/26 10:48:03;;;;;;;;;;;5.40;99.90;;;5.31;100.00;99652.66;4986079;28;19941;-81
2021/12/26 10:50:33;;;;;;;;;;;4.20;99.90;;;5.36;100.00;99652.59;4954300;28;19930;-81
2021/12/26 10:53:02;;;;;;;;;;;4.10;99.90;;;5.31;100.00;99657.03;4953710;28;19985;-81
2021/12/26 10:55:34;;;;;;;;;;;7.50;99.90;;;5.31;100.00;99657.88;4972965;28;20001;-84
2021/12/26 10:58:13;;;;;;;;;;;3.50;99.90;;;5.25;100.00;99634.50;4959051;28;19930;-84
2021/12/26 11:00:45;;;;;;;;;;;5.40;99.90;;;5.35;100.00;99653.50;4960284;28;20001;-83
2021/12/26 11:03:21;;;;;;;;;;;5.50;99.90;;;5.34;100.00;99643.94;4978839;28;19981;-82
2021/12/26 11:05:51;;;;;;;;;;;5.40;99.90;;;5.39;100.00;99648.22;4976550;28;19929;-81
2021/12/26 11:08:30;;;;;;;;;;;5.50;99.90;;;5.39;100.00;99631.69;4951775;28;19927;-80
2021/12/26 11:10:58;;;;;;;;;;;7.20;99.90;;;5.49;100.00;99638.50;4951188;28;19985;-80
2021/12/26 11:13:31;;;;;;;;;;;6.10;99.90;;;5.53;100.00;99634.97;4966319;28;19977;-82
2021/12/26 11:16:06;;;;;;;;;;;5.50;99.90;;;5.57;100.00;99645.34;4958415;28;19941;-79
2021/12/26 11:18:35;;;;;;;;;;;6.10;99.90;;;5.52;100.00;99640.19;4958273;28;19937;-79
2021/12/26 11:21:13;;;;;;;;;;;5.60;99.90;;;5.49;100.00;99638.50;4973566;28;19977;-78
2021/12/26 11:23:42;;;;;;;;;;;7.50;99.90;;;5.47;100.00;99631.56;4974993;28;20033;-79
2021/12/26 11:26:10;;;;;;;;;;;7.60;99.90;;;5.48;100.00;99635.91;4973114;28;19941;-82
2021/12/26 11:28:40;;;;;;;;;;;6.70;99.90;;;5.53;100.00;99637.56;4973539;28;19969;-81
2021/12/26 11:31:15;;;;;;;;;;;9.00;99.90;;;5.66;100.00;99629.56;4974591;28;19965;-76
2021/12/26 11:33:45;;;;;;;;;;;5.80;99.90;;;5.74;100.00;99637.25;4952109;28;20142;-77
2021/12/26 11:36:12;;;;;;;;;;;6.70;99.90;;;5.78;100.00;99631.09;4971940;28;19930;-81
2021/12/26 11:38:40;;;;;;;;;;;6.00;99.90;;;5.87;100.00;99635.31;4956169;28;19937;-80
2021/12/26 11:41:32;;;;;;;;;;;5.90;99.90;;;5.92;100.00;99629.13;4975278;28;20257;-80
2021/12/26 11:44:27;;;;;;;;;;;6.90;99.90;;;5.96;100.00;99635.16;4971733;28;20012;-79
2021/12/26 11:47:28;;;;;;;;;;;5.90;99.90;;;5.90;100.00;99628.28;4963524;28;19941;-83
2021/12/26 11:50:14;;;;;;;;;;;6.20;99.90;;;5.87;100.00;99622.25;4952936;29;20019;-83